Time;durP1;ratioP1;P1;durP2;ratioP2;P2;SDS_P1;SDS_P2;PMS_P1;PMS_P2;Temp;Humidity;BMP_temperature;BMP_pressure;BME280_temperature;BME280_humidity;BME280_pressure;Samples;Min_cycle;Max_cycle;Signal;HPM_P1;HPM_P2
2021/08/26 00:00:25;;;;;;;3.87;3.50;;;19.30;97.60;;;;;;5047181;28;20448;-79
2021/08/26 00:05:46;;;;;;;6.20;4.43;;;19.30;97.80;;;;;;5043630;28;20493;-82
2021/08/26 00:08:21;;;;;;;3.80;3.50;;;19.20;98.20;;;;;;5035375;28;20478;-82
2021/08/26 00:10:48;;;;;;;4.00;3.70;;;19.20;98.30;;;;;;5030339;28;20448;-83
2021/08/26 00:13:16;;;;;;;4.00;3.70;;;19.30;98.30;;;;;;5050856;28;20569;-82
2021/08/26 00:15:45;;;;;;;5.57;5.00;;;19.30;98.10;;;;;;5033931;28;20464;-83
2021/08/26 00:18:15;;;;;;;5.57;5.07;;;19.30;98.20;;;;;;5042186;28;20448;-83
2021/08/26 00:20:44;;;;;;;6.13;5.30;;;19.30;98.10;;;;;;5036694;28;20440;-84
2021/08/26 00:23:11;;;;;;;8.00;6.50;;;19.20;98.30;;;;;;5041843;28;20460;-81
2021/08/26 00:25:38;;;;;;;6.47;5.90;;;19.20;98.50;;;;;;5039385;28;20562;-82
2021/08/26 00:28:04;;;;;;;6.50;5.90;;;19.20;98.90;;;;;;5040238;28;20450;-82
2021/08/26 00:30:31;;;;;;;9.20;8.30;;;19.20;99.00;;;;;;5035024;28;20453;-82
2021/08/26 00:32:58;;;;;;;9.50;8.03;;;19.10;99.20;;;;;;5032171;28;20440;-82
2021/08/26 00:35:25;;;;;;;10.07;9.07;;;19.00;99.50;;;;;;5055819;28;20464;-82
2021/08/26 00:37:51;;;;;;;9.90;8.27;;;19.00;99.80;;;;;;5035514;28;20444;-82
2021/08/26 00:40:18;;;;;;;10.47;9.47;;;18.90;99.90;;;;;;5040894;28;20516;-82
2021/08/26 00:42:45;;;;;;;10.00;8.97;;;18.80;99.90;;;;;;5054513;28;20448;-82
2021/08/26 00:45:12;;;;;;;10.93;9.83;;;18.80;99.90;;;;;;5056901;28;20454;-82
2021/08/26 00:47:43;;;;;;;11.30;10.10;;;18.80;99.90;;;;;;5051800;28;20831;-82
2021/08/26 00:50:10;;;;;;;11.63;10.50;;;18.70;99.90;;;;;;5029786;28;20449;-82
2021/08/26 00:52:38;;;;;;;11.63;10.50;;;18.60;99.90;;;;;;5053796;28;20552;-81
2021/08/26 00:55:07;;;;;;;10.13;9.07;;;18.60;99.90;;;;;;5053491;28;20819;-81
2021/08/26 00:57:34;;;;;;;9.53;8.60;;;18.60;99.90;;;;;;5053035;28;20474;-82
2021/08/26 01:00:05;;;;;;;9.63;8.63;;;18.70;99.90;;;;;;5050899;28;20480;-83
2021/08/26 01:03:00;;;;;;;10.17;8.87;;;18.70;99.90;;;;;;5052397;28;20496;-82
2021/08/26 01:05:43;;;;;;;10.00;8.50;;;18.70;99.90;;;;;;4995967;28;20457;-83
2021/08/26 01:08:13;;;;;;;9.70;8.73;;;18.60;99.90;;;;;;5032497;28;20489;-83
2021/08/26 01:10:45;;;;;;;9.47;8.50;;;18.60;99.90;;;;;;5036310;28;20462;-83
2021/08/26 01:13:13;;;;;;;10.77;8.90;;;18.50;99.90;;;;;;5048740;28;21004;-83
2021/08/26 01:16:09;;;;;;;11.23;9.57;;;18.60;99.90;;;;;;5041328;28;20469;-83
2021/08/26 01:18:39;;;;;;;11.33;10.33;;;18.50;99.90;;;;;;5046150;28;20520;-82
2021/08/26 01:21:08;;;;;;;10.17;9.17;;;18.60;99.90;;;;;;5058396;28;20535;-82
2021/08/26 01:23:38;;;;;;;10.80;9.10;;;18.40;99.90;;;;;;5052592;28;20468;-82
2021/08/26 01:26:07;;;;;;;9.30;8.40;;;18.40;99.90;;;;;;5050275;28;20485;-82
2021/08/26 01:28:40;;;;;;;9.77;8.77;;;18.40;99.90;;;;;;5033087;28;20459;-82
2021/08/26 01:31:06;;;;;;;8.80;7.93;;;18.30;99.90;;;;;;5049702;28;20444;-82
2021/08/26 01:33:34;;;;;;;8.80;7.90;;;18.40;99.90;;;;;;5042047;28;20449;-82
2021/08/26 01:36:04;;;;;;;8.57;7.87;;;18.40;99.90;;;;;;5053904;28;20480;-82
2021/08/26 01:38:31;;;;;;;8.50;7.60;;;18.40;99.90;;;;;;5051651;28;20455;-82
2021/08/26 01:40:57;;;;;;;13.10;8.03;;;18.30;99.90;;;;;;5057184;28;20460;-82
2021/08/26 01:43:24;;;;;;;9.10;8.10;;;18.30;99.90;;;;;;5038901;28;20483;-83
2021/08/26 01:45:51;;;;;;;8.40;7.60;;;18.20;99.90;;;;;;5043424;28;20702;-82
2021/08/26 01:48:18;;;;;;;11.03;8.03;;;18.10;99.90;;;;;;5037764;28;20859;-82
2021/08/26 01:50:50;;;;;;;8.23;7.53;;;18.10;99.90;;;;;;5058399;28;20452;-82
2021/08/26 01:53:17;;;;;;;11.00;7.37;;;18.00;99.90;;;;;;5049533;28;20501;-83
2021/08/26 01:55:45;;;;;;;8.50;7.63;;;18.10;99.90;;;;;;5050813;28;20477;-82
2021/08/26 01:58:13;;;;;;;7.10;6.40;;;18.10;99.90;;;;;;5058084;28;20458;-80
2021/08/26 02:00:41;;;;;;;6.47;5.87;;;18.10;99.90;;;;;;5052417;28;20456;-83
2021/08/26 02:03:07;;;;;;;6.70;6.00;;;18.10;99.90;;;;;;5059360;28;20522;-83
2021/08/26 02:05:34;;;;;;;6.53;5.43;;;18.10;99.90;;;;;;5036608;28;20468;-82
2021/08/26 02:08:01;;;;;;;6.10;5.50;;;18.10;99.90;;;;;;5036545;28;21028;-82
2021/08/26 02:10:28;;;;;;;5.90;5.40;;;18.10;99.90;;;;;;5028596;28;20957;-82
2021/08/26 02:12:56;;;;;;;5.50;5.00;;;18.10;99.90;;;;;;5060963;28;20444;-82
2021/08/26 02:15:22;;;;;;;4.57;4.27;;;18.10;99.90;;;;;;5058018;28;20468;-83
2021/08/26 02:17:49;;;;;;;5.80;5.30;;;18.10;99.90;;;;;;5060629;28;20595;-82
2021/08/26 02:20:16;;;;;;;5.60;5.10;;;18.10;99.90;;;;;;5060168;28;20483;-82
2021/08/26 02:22:43;;;;;;;5.80;5.27;;;18.00;99.90;;;;;;5029014;28;20459;-80
2021/08/26 02:25:12;;;;;;;7.00;5.20;;;17.90;99.90;;;;;;5056904;28;20464;-81
2021/08/26 02:27:39;;;;;;;5.50;5.00;;;17.90;99.90;;;;;;5040374;28;20468;-82
2021/08/26 02:30:07;;;;;;;5.57;5.07;;;18.00;99.90;;;;;;5053698;28;20474;-80
2021/08/26 02:32:35;;;;;;;5.00;4.60;;;18.00;99.90;;;;;;5040541;28;20483;-82
2021/08/26 02:35:04;;;;;;;5.83;5.33;;;17.90;99.90;;;;;;5060334;28;20935;-81
2021/08/26 02:37:30;;;;;;;5.70;5.20;;;17.90;99.90;;;;;;5038230;28;20972;-81
2021/08/26 02:39:57;;;;;;;5.40;4.90;;;17.90;99.90;;;;;;5053632;28;20454;-82
2021/08/26 02:42:24;;;;;;;5.63;5.13;;;17.90;99.90;;;;;;5032585;28;20689;-81
2021/08/26 02:44:51;;;;;;;7.47;6.70;;;17.90;99.90;;;;;;5053439;28;20448;-80
2021/08/26 02:47:17;;;;;;;8.00;6.33;;;17.90;99.90;;;;;;5031073;28;20499;-79
2021/08/26 02:49:44;;;;;;;6.23;5.63;;;17.90;99.90;;;;;;5056723;28;20448;-83
2021/08/26 02:52:11;;;;;;;7.27;6.57;;;17.90;99.90;;;;;;5037558;28;20463;-81
2021/08/26 02:54:38;;;;;;;7.67;6.97;;;18.00;99.90;;;;;;5039417;28;20937;-82
2021/08/26 02:57:06;;;;;;;5.00;4.33;;;18.10;99.90;;;;;;5035586;28;20477;-82
2021/08/26 02:59:33;;;;;;;4.30;3.50;;;18.10;99.90;;;;;;5048490;28;20457;-84
2021/08/26 03:02:00;;;;;;;4.63;3.20;;;18.00;99.90;;;;;;5043596;28;20967;-82
2021/08/26 03:04:27;;;;;;;3.87;3.03;;;17.90;99.90;;;;;;5055455;28;20460;-81
2021/08/26 03:06:53;;;;;;;3.00;2.70;;;17.90;99.90;;;;;;5040734;28;20508;-82
2021/08/26 03:09:20;;;;;;;3.30;2.93;;;18.00;99.90;;;;;;5036139;28;20464;-82
2021/08/26 03:11:46;;;;;;;4.03;3.00;;;18.10;99.90;;;;;;5034151;28;20471;-82
2021/08/26 03:14:13;;;;;;;3.60;2.43;;;18.10;99.90;;;;;;5051742;28;20437;-83
2021/08/26 03:16:40;;;;;;;6.50;2.97;;;18.10;99.90;;;;;;5045768;28;20465;-82
2021/08/26 03:19:07;;;;;;;3.73;2.90;;;17.90;99.90;;;;;;5046449;28;20462;-80
2021/08/26 03:21:33;;;;;;;4.63;2.50;;;17.90;99.90;;;;;;5046813;28;20460;-80
2021/08/26 03:24:00;;;;;;;2.67;2.47;;;18.00;99.90;;;;;;5057082;28;20441;-80
2021/08/26 03:26:27;;;;;;;3.03;2.70;;;17.80;99.90;;;;;;5029855;28;20485;-80
2021/08/26 03:28:53;;;;;;;4.57;3.20;;;17.90;99.90;;;;;;5047526;28;20461;-81
2021/08/26 03:31:20;;;;;;;3.97;3.17;;;17.90;99.90;;;;;;5046102;28;20455;-82
2021/08/26 03:33:46;;;;;;;5.40;2.73;;;17.90;99.90;;;;;;4705919;28;9999723;-82
2021/08/26 03:36:13;;;;;;;4.23;3.07;;;17.90;99.90;;;;;;5025573;28;20471;-81
2021/08/26 03:38:41;;;;;;;5.03;2.87;;;17.90;99.90;;;;;;5051245;28;20484;-82
2021/08/26 03:41:08;;;;;;;3.27;2.23;;;17.90;99.90;;;;;;5044178;28;20464;-81
2021/08/26 03:43:35;;;;;;;5.87;2.90;;;17.90;99.90;;;;;;5046492;28;20503;-81
2021/08/26 03:46:02;;;;;;;4.47;2.80;;;17.80;99.90;;;;;;5019821;28;20472;-83
2021/08/26 03:48:28;;;;;;;6.60;3.23;;;17.90;99.90;;;;;;5052724;28;20453;-81
2021/08/26 03:50:55;;;;;;;6.17;3.70;;;17.90;99.90;;;;;;5045778;28;20449;-82
2021/08/26 03:53:22;;;;;;;2.80;2.30;;;17.80;99.90;;;;;;5040595;28;20457;-82
2021/08/26 03:55:48;;;;;;;8.13;3.23;;;17.80;99.90;;;;;;5036996;28;20491;-79
2021/08/26 03:58:15;;;;;;;4.43;3.07;;;17.70;99.90;;;;;;5006831;28;20448;-79
2021/08/26 04:00:42;;;;;;;3.70;3.40;;;17.70;99.90;;;;;;5010111;28;20475;-79
2021/08/26 04:03:11;;;;;;;4.73;3.43;;;17.70;99.90;;;;;;5013772;28;20555;-79
2021/08/26 04:05:38;;;;;;;3.80;2.83;;;17.80;99.90;;;;;;4991622;28;21203;-81
2021/08/26 04:08:05;;;;;;;3.83;3.30;;;17.70;99.90;;;;;;5007233;28;20978;-81
2021/08/26 04:10:32;;;;;;;4.10;3.20;;;17.70;99.90;;;;;;4997662;28;20459;-80
2021/08/26 04:12:58;;;;;;;4.68;2.95;;;17.70;99.90;;;;;;4306647;28;10000311;-80
2021/08/26 04:15:25;;;;;;;4.33;3.17;;;17.70;99.90;;;;;;4670843;28;9999978;-80
2021/08/26 04:17:52;;;;;;;3.23;2.93;;;17.70;99.90;;;;;;5008274;28;20444;-80
2021/08/26 04:20:19;;;;;;;5.57;2.60;;;17.70;99.90;;;;;;5029714;28;20456;-81
2021/08/26 04:22:46;;;;;;;4.53;3.07;;;17.60;99.90;;;;;;5060771;28;20452;-82
2021/08/26 04:25:13;;;;;;;4.80;2.83;;;17.60;99.90;;;;;;5057841;28;20474;-82
2021/08/26 04:27:39;;;;;;;3.60;2.47;;;17.60;99.90;;;;;;5035132;28;20485;-83
2021/08/26 04:30:07;;;;;;;4.50;3.00;;;17.60;99.90;;;;;;5038142;28;20465;-82
2021/08/26 04:32:34;;;;;;;4.67;2.80;;;17.60;99.90;;;;;;5040984;28;20449;-81
2021/08/26 04:35:01;;;;;;;4.60;3.00;;;17.50;99.90;;;;;;5064987;28;20455;-79
2021/08/26 04:37:29;;;;;;;4.77;3.63;;;17.60;99.90;;;;;;5063151;28;20483;-81
2021/08/26 04:39:56;;;;;;;4.47;3.73;;;17.60;99.90;;;;;;5035124;28;20456;-81
2021/08/26 04:42:23;;;;;;;13.87;12.40;;;17.60;99.90;;;;;;5022382;28;20965;-81
2021/08/26 04:44:50;;;;;;;8.30;4.00;;;17.50;99.90;;;;;;5004252;28;20461;-81
2021/08/26 04:47:16;;;;;;;4.67;4.00;;;17.50;99.90;;;;;;4989681;28;20498;-81
2021/08/26 04:49:43;;;;;;;5.80;4.00;;;17.60;99.90;;;;;;5011709;28;20454;-80
2021/08/26 04:52:10;;;;;;;6.33;4.10;;;17.60;99.90;;;;;;5034919;28;20453;-82
2021/08/26 04:54:39;;;;;;;5.23;3.53;;;17.60;99.90;;;;;;5050983;28;20523;-82
2021/08/26 04:57:06;;;;;;;5.03;4.13;;;17.60;99.90;;;;;;5058251;28;20483;-82
2021/08/26 04:59:33;;;;;;;5.53;4.03;;;17.60;99.90;;;;;;5050981;28;20449;-82
2021/08/26 05:02:00;;;;;;;6.30;4.10;;;17.70;99.90;;;;;;5034865;28;20468;-83
2021/08/26 05:04:27;;;;;;;6.20;4.43;;;17.70;99.90;;;;;;5064592;28;20446;-83
2021/08/26 05:06:54;;;;;;;7.73;4.77;;;17.70;99.90;;;;;;5050712;28;20476;-81
2021/08/26 05:09:20;;;;;;;4.80;3.90;;;17.70;99.90;;;;;;5043307;28;20926;-82
2021/08/26 05:11:47;;;;;;;5.47;3.57;;;17.70;99.90;;;;;;5054217;28;20511;-82
2021/08/26 05:14:14;;;;;;;8.73;4.80;;;17.70;99.90;;;;;;5039867;28;20452;-82
2021/08/26 05:16:41;;;;;;;5.37;3.33;;;17.70;99.90;;;;;;5045928;28;20482;-82
2021/08/26 05:19:07;;;;;;;6.80;3.60;;;17.60;99.90;;;;;;5032657;28;20455;-82
2021/08/26 05:21:34;;;;;;;7.10;3.47;;;17.70;99.90;;;;;;5050135;28;20476;-81
2021/08/26 05:24:01;;;;;;;9.03;3.50;;;17.70;99.90;;;;;;5058775;28;20456;-82
2021/08/26 05:26:27;;;;;;;6.93;3.30;;;17.70;99.90;;;;;;5042985;28;20548;-82
2021/08/26 05:28:54;;;;;;;4.83;3.47;;;17.70;99.90;;;;;;5055366;28;20433;-81
2021/08/26 05:31:21;;;;;;;6.80;4.13;;;17.80;99.90;;;;;;5054589;28;20530;-83
2021/08/26 05:33:48;;;;;;;7.03;4.27;;;17.80;99.90;;;;;;5041387;28;20453;-81
2021/08/26 05:36:14;;;;;;;6.30;4.33;;;17.80;99.90;;;;;;5041334;28;20483;-83
2021/08/26 05:38:41;;;;;;;9.17;4.40;;;17.80;99.90;;;;;;5045320;28;20457;-82
2021/08/26 05:41:08;;;;;;;5.37;3.83;;;17.70;99.90;;;;;;5025583;28;20464;-82
2021/08/26 05:43:34;;;;;;;8.20;4.00;;;17.80;99.90;;;;;;5155671;22;20492;-82
2021/08/26 05:46:05;;;;;;;6.90;3.87;;;17.80;99.90;;;;;;4934896;28;20469;-80
2021/08/26 05:48:32;;;;;;;4.03;3.63;;;17.80;99.90;;;;;;4941063;28;20496;-82
2021/08/26 05:51:19;;;;;;;6.20;4.30;;;17.90;99.90;;;;;;5005024;28;20457;-83
2021/08/26 05:53:55;;;;;;;6.37;4.10;;;17.90;99.90;;;;;;5034808;28;20440;-83
2021/08/26 05:56:23;;;;;;;7.97;3.23;;;17.90;99.90;;;;;;5027150;28;20546;-83
2021/08/26 05:59:00;;;;;;;5.33;2.50;;;17.90;99.90;;;;;;5052288;28;20461;-83
2021/08/26 06:01:33;;;;;;;5.20;2.40;;;17.90;99.90;;;;;;5050438;28;20465;-83
2021/08/26 06:04:01;;;;;;;7.33;3.33;;;17.80;99.90;;;;;;5018787;28;20550;-83
2021/08/26 06:06:31;;;;;;;6.70;3.33;;;18.00;99.90;;;;;;5000007;28;20520;-80
2021/08/26 06:09:14;;;;;;;3.00;2.70;;;18.00;99.90;;;;;;4983749;28;20546;-82
2021/08/26 06:12:04;;;;;;;4.60;2.50;;;18.00;99.90;;;;;;4987149;28;20488;-79
2021/08/26 06:14:36;;;;;;;5.60;2.63;;;18.00;99.90;;;;;;5008044;28;20456;-79
2021/08/26 06:17:03;;;;;;;3.10;2.63;;;18.00;99.90;;;;;;5025939;28;20890;-82
2021/08/26 06:19:40;;;;;;;4.97;2.73;;;17.90;99.90;;;;;;5023389;28;20473;-82
2021/08/26 06:22:19;;;;;;;3.90;2.70;;;17.90;99.90;;;;;;5025915;28;20512;-82
2021/08/26 06:24:48;;;;;;;5.07;2.77;;;18.00;99.90;;;;;;5016620;28;20457;-82
2021/08/26 06:27:43;;;;;;;6.87;2.40;;;18.00;99.90;;;;;;5031406;28;21144;-82
2021/08/26 06:30:29;;;;;;;4.77;2.67;;;18.00;99.90;;;;;;5040943;28;20476;-82
2021/08/26 06:36:26;;;;;;;7.40;2.77;;;17.90;99.90;;;;;;5039477;28;20481;-84
2021/08/26 06:39:12;;;;;;;3.07;2.40;;;18.00;99.90;;;;;;5039040;28;20461;-83
2021/08/26 06:41:48;;;;;;;7.67;2.83;;;18.00;99.90;;;;;;5025119;28;20469;-83
2021/08/26 06:44:47;;;;;;;6.40;2.50;;;18.10;99.90;;;;;;5019355;28;20461;-83
2021/08/26 06:47:34;;;;;;;5.37;2.47;;;18.20;99.90;;;;;;5022166;28;20484;-84
2021/08/26 06:50:10;;;;;;;6.43;3.20;;;18.30;99.90;;;;;;5022955;28;20454;-82
2021/08/26 06:53:06;;;;;;;9.93;3.00;;;18.30;99.50;;;;;;5026300;28;20521;-84
2021/08/26 06:55:57;;;;;;;6.10;2.03;;;18.30;99.30;;;;;;5025746;28;21265;-84
2021/08/26 06:59:24;;;;;;;4.77;2.10;;;18.20;99.20;;;;;;5038130;28;20434;-83
2021/08/26 08:05:19;;;;;;;7.87;3.20;;;18.70;99.70;;;;;;5019635;28;20544;-83
2021/08/26 08:12:02;;;;;;;6.17;3.83;;;18.90;99.50;;;;;;4921182;29;20423;-82
2021/08/26 08:18:15;;;;;;;9.27;3.77;;;18.90;99.40;;;;;;4995805;28;20473;-83
2021/08/26 08:20:51;;;;;;;9.80;2.80;;;18.70;98.00;;;;;;5018071;28;20517;-83
2021/08/26 08:23:32;;;;;;;4.93;3.20;;;18.50;98.20;;;;;;5000384;28;20441;-82
2021/08/26 08:26:16;;;;;;;7.40;3.47;;;18.50;98.80;;;;;;5028506;28;20517;-83
2021/08/26 08:28:43;;;;;;;5.30;2.93;;;18.40;99.30;;;;;;5017578;28;20485;-83
2021/08/26 08:31:22;;;;;;;6.30;2.93;;;18.50;99.30;;;;;;5033697;28;20430;-82
2021/08/26 08:34:00;;;;;;;6.00;3.20;;;18.50;99.10;;;;;;5034707;28;21016;-83
2021/08/26 08:36:39;;;;;;;6.33;2.80;;;18.50;99.00;;;;;;5035119;28;20453;-84
2021/08/26 08:40:47;;;;;;;10.10;4.20;;;18.60;99.20;;;;;;5019044;28;20521;-84
2021/08/26 08:48:54;;;;;;;;;;;;;;;;;;;;;
2021/08/26 09:06:47;;;;;;;6.00;2.20;;;18.20;98.60;;;;;;5028568;28;20500;-82
2021/08/26 09:09:28;;;;;;;3.30;2.00;;;18.30;98.50;;;;;;5014361;28;20509;-84
2021/08/26 09:12:18;;;;;;;5.70;2.93;;;18.40;98.20;;;;;;5006233;28;20469;-84
2021/08/26 09:15:29;;;;;;;7.50;2.70;;;18.30;98.30;;;;;;5015898;28;20453;-83
2021/08/26 09:18:20;;;;;;;7.70;3.70;;;18.40;98.40;;;;;;5003668;28;20521;-83
2021/08/26 09:21:15;;;;;;;;;;;;;;;;;;;;;
2021/08/26 09:24:01;;;;;;;5.40;2.60;;;18.40;98.30;;;;;;5019405;28;20526;-82
2021/08/26 09:26:31;;;;;;;6.53;3.00;;;18.50;98.40;;;;;;5013772;28;20617;-83
2021/08/26 09:29:13;;;;;;;4.97;3.03;;;18.60;98.30;;;;;;5004722;28;20543;-83
2021/08/26 09:31:51;;;;;;;4.50;2.60;;;18.70;98.00;;;;;;5008239;28;20449;-84
2021/08/26 09:34:43;;;;;;;6.00;2.50;;;18.70;97.70;;;;;;5009974;28;20454;-82
2021/08/26 09:38:00;;;;;;;12.30;5.40;;;18.60;98.90;;;;;;4992711;28;20493;-82
2021/08/26 09:41:09;;;;;;;4.07;2.60;;;18.70;99.40;;;;;;4994124;28;20946;-82
2021/08/26 09:44:15;;;;;;;4.87;2.80;;;18.70;99.80;;;;;;4997635;28;20447;-83
2021/08/26 09:47:34;;;;;;;5.53;3.90;;;18.80;99.60;;;;;;5014651;28;20476;-82
2021/08/26 09:50:40;;;;;;;5.40;3.30;;;18.50;99.90;;;;;;5006152;28;20450;-83
2021/08/26 09:57:30;;;;;;;5.63;2.70;;;18.80;99.90;;;;;;5025480;28;20472;-82
2021/08/26 10:00:08;;;;;;;8.70;3.87;;;18.80;99.90;;;;;;5004302;28;20442;-82
2021/08/26 10:02:53;;;;;;;5.70;3.57;;;19.20;99.90;;;;;;4996761;28;20471;-82
2021/08/26 10:05:33;;;;;;;6.60;3.43;;;19.20;99.90;;;;;;5005562;28;20558;-82
2021/08/26 10:12:12;;;;;;;10.10;4.30;;;19.50;99.90;;;;;;5023839;28;20446;-81
2021/08/26 10:15:18;;;;;;;6.77;3.20;;;19.30;99.90;;;;;;5009879;28;20440;-80
2021/08/26 10:18:30;;;;;;;5.60;3.00;;;19.10;99.90;;;;;;5012282;28;20481;-82
2021/08/26 10:21:00;;;;;;;12.70;4.60;;;19.10;99.90;;;;;;5008991;28;20457;-84
2021/08/26 10:24:06;;;;;;;7.93;3.90;;;19.00;99.90;;;;;;5018023;28;20536;-80
2021/08/26 10:27:04;;;;;;;8.30;4.53;;;18.90;99.90;;;;;;5016929;28;20488;-84
2021/08/26 10:29:51;;;;;;;5.50;3.60;;;19.00;99.90;;;;;;4997931;28;20488;-81
2021/08/26 10:32:27;;;;;;;6.70;3.40;;;18.90;99.90;;;;;;4998431;28;20677;-85
2021/08/26 10:35:16;;;;;;;9.00;4.10;;;18.70;99.90;;;;;;4989424;28;20591;-82
2021/08/26 10:38:12;;;;;;;9.33;4.30;;;18.60;99.90;;;;;;5000530;28;20456;-84
2021/08/26 10:40:56;;;;;;;5.00;4.03;;;18.80;99.90;;;;;;5003702;28;20469;-81
2021/08/26 10:44:09;;;;;;;8.43;4.60;;;18.70;99.90;;;;;;5007007;28;20462;-81
2021/08/26 10:47:02;;;;;;;5.33;4.20;;;18.90;99.90;;;;;;4963616;28;20541;-85
2021/08/26 10:50:22;;;;;;;8.13;4.13;;;18.70;99.90;;;;;;5018212;28;20565;-82
2021/08/26 10:53:39;;;;;;;;;;;;;;;;;;;;;
2021/08/26 10:56:49;;;;;;;4.83;3.90;;;19.10;99.90;;;;;;4962381;28;21044;-82
2021/08/26 10:59:32;;;;;;;6.73;4.07;;;19.00;99.90;;;;;;4948001;29;20851;-83
2021/08/26 11:02:59;;;;;;;11.43;4.30;;;18.90;99.90;;;;;;4964732;28;20425;-84
2021/08/26 11:05:39;;;;;;;5.20;3.73;;;18.60;99.90;;;;;;4891615;29;20507;-81
2021/08/26 11:08:33;;;;;;;10.33;4.33;;;18.70;99.90;;;;;;4959789;28;20476;-81
2021/08/26 11:11:28;;;;;;;6.70;4.23;;;18.80;99.90;;;;;;4960403;28;20488;-82
2021/08/26 11:14:15;;;;;;;5.93;4.20;;;18.50;99.90;;;;;;4931761;29;20456;-82
2021/08/26 11:16:45;;;;;;;5.30;3.50;;;18.50;99.90;;;;;;4947751;28;20476;-82
2021/08/26 11:19:29;;;;;;;8.23;3.53;;;18.60;99.90;;;;;;4949023;28;20895;-81
2021/08/26 11:22:14;;;;;;;4.33;3.30;;;18.50;99.90;;;;;;4938616;29;21030;-81
2021/08/26 11:25:12;;;;;;;6.43;3.30;;;18.50;99.90;;;;;;4951100;28;20871;-80
2021/08/26 11:27:41;;;;;;;5.13;3.90;;;18.50;99.90;;;;;;4971344;28;20840;-81
2021/08/26 11:30:48;;;;;;;5.67;3.10;;;18.70;99.90;;;;;;4995916;28;20493;-82
2021/08/26 11:33:33;;;;;;;4.90;3.00;;;18.70;99.90;;;;;;5001544;28;20457;-81
2021/08/26 11:36:19;;;;;;;5.73;2.73;;;18.80;99.90;;;;;;5032483;28;20462;-85
2021/08/26 11:39:33;;;;;;;3.77;3.23;;;19.00;99.90;;;;;;5017875;28;20457;-80
2021/08/26 11:45:35;;;;;;;5.10;3.00;;;20.00;99.90;;;;;;5023837;28;20497;-82
2021/08/26 11:49:00;;;;;;;5.27;2.47;;;20.10;99.90;;;;;;5016859;28;20524;-83
2021/08/26 11:55:36;;;;;;;;;;;;;;;;;;;;;
2021/08/26 11:58:46;;;;;;;6.17;2.90;;;21.10;97.50;;;;;;5027877;28;20450;-83
2021/08/26 12:05:04;;;;;;;6.10;3.47;;;21.80;95.60;;;;;;5027548;28;20505;-81
2021/08/26 12:09:10;;;;;;;4.50;3.10;;;21.50;96.40;;;;;;5013544;28;21788;-82
2021/08/26 12:23:51;;;;;;;3.60;2.20;;;19.90;97.20;;;;;;3270221;26;20501;-80
2021/08/26 12:26:40;;;;;;;3.33;2.20;;;19.80;97.20;;;;;;4984996;28;20471;-83
2021/08/26 12:29:07;;;;;;;5.37;2.67;;;19.80;96.80;;;;;;4975350;28;20481;-82
2021/08/26 12:31:44;;;;;;;3.43;2.30;;;19.80;96.30;;;;;;4955271;28;20481;-80
2021/08/26 12:34:32;;;;;;;7.23;2.73;;;19.80;96.40;;;;;;4905659;29;20518;-81
2021/08/26 12:49:40;;;;;;;4.33;2.27;;;20.40;95.90;;;;;;4897241;29;20500;-80
2021/08/26 12:52:50;;;;;;;5.20;2.40;;;20.80;95.20;;;;;;4879710;29;20987;-82
2021/08/26 12:55:27;;;;;;;3.50;1.90;;;21.10;94.40;;;;;;4900891;29;20576;-84
2021/08/26 13:01:41;;;;;;;5.03;2.40;;;22.00;92.40;;;;;;4854804;29;20505;-82
2021/08/26 13:04:50;;;;;;;3.60;2.10;;;22.30;91.60;;;;;;4879562;29;20507;-80
2021/08/26 13:07:27;;;;;;;3.57;2.20;;;22.30;90.70;;;;;;4864422;29;20572;-83
2021/08/26 13:10:18;;;;;;;2.60;1.77;;;22.40;90.50;;;;;;4884456;29;20496;-82
2021/08/26 13:13:25;;;;;;;4.10;2.33;;;22.70;90.30;;;;;;4886341;29;20536;-80
2021/08/26 13:16:08;;;;;;;3.27;1.63;;;22.80;88.00;;;;;;4944232;28;20564;-79
2021/08/26 13:18:38;;;;;;;5.47;2.20;;;22.40;89.00;;;;;;4948123;28;20478;-82
2021/08/26 13:21:08;;;;;;;3.27;2.40;;;22.30;89.90;;;;;;4955749;28;20564;-80
2021/08/26 13:23:36;;;;;;;5.70;2.97;;;22.20;89.80;;;;;;4969202;28;20474;-79
2021/08/26 13:26:04;;;;;;;3.80;2.50;;;21.90;91.10;;;;;;4962830;28;21015;-85
2021/08/26 13:28:33;;;;;;;4.53;2.37;;;21.70;91.30;;;;;;4960600;28;20488;-83
2021/08/26 13:31:03;;;;;;;5.23;2.47;;;21.40;91.70;;;;;;4953928;28;22102;-84
2021/08/26 13:33:34;;;;;;;3.83;1.93;;;21.20;91.10;;;;;;4956191;28;20489;-84
2021/08/26 13:36:01;;;;;;;5.53;1.80;;;20.90;91.20;;;;;;4969954;28;20516;-84
2021/08/26 13:38:32;;;;;;;2.83;1.60;;;20.70;91.90;;;;;;4950553;28;20855;-83
2021/08/26 13:41:00;;;;;;;4.23;2.37;;;20.60;92.40;;;;;;4952332;28;20462;-81
2021/08/26 13:43:27;;;;;;;3.30;1.77;;;20.50;92.80;;;;;;4952366;28;20508;-81
2021/08/26 13:45:53;;;;;;;5.97;2.17;;;20.40;93.10;;;;;;4969106;28;20565;-81
2021/08/26 13:48:25;;;;;;;4.30;2.10;;;20.40;93.00;;;;;;4954131;28;20539;-83
2021/08/26 13:50:56;;;;;;;3.40;1.77;;;20.50;92.90;;;;;;4979151;28;20445;-84
2021/08/26 13:53:23;;;;;;;2.70;2.00;;;20.60;92.80;;;;;;4975558;28;21178;-82
2021/08/26 13:55:50;;;;;;;4.53;2.10;;;20.70;92.80;;;;;;4958056;28;20498;-82
2021/08/26 13:58:17;;;;;;;4.90;1.80;;;20.90;92.70;;;;;;4966190;28;20454;-82
2021/08/26 14:00:47;;;;;;;4.83;1.70;;;21.00;92.40;;;;;;4984604;28;20501;-81
2021/08/26 14:03:26;;;;;;;5.73;2.03;;;21.00;92.10;;;;;;4987895;28;20650;-81
2021/08/26 14:05:53;;;;;;;2.93;1.63;;;21.00;92.00;;;;;;4988585;28;20497;-84
2021/08/26 14:08:22;;;;;;;4.83;1.80;;;21.00;92.00;;;;;;4968938;28;20446;-85
2021/08/26 14:10:49;;;;;;;4.20;2.23;;;21.10;92.10;;;;;;4967782;28;20451;-84
2021/08/26 14:13:16;;;;;;;5.03;1.90;;;21.20;91.70;;;;;;4970177;28;21166;-81
2021/08/26 14:15:43;;;;;;;3.37;2.00;;;21.10;92.00;;;;;;4966769;28;20478;-84
2021/08/26 14:18:10;;;;;;;3.20;2.00;;;21.10;92.00;;;;;;4982427;28;20442;-85
2021/08/26 14:20:36;;;;;;;4.97;2.20;;;21.30;92.10;;;;;;4967143;28;20474;-82
2021/08/26 14:23:04;;;;;;;4.90;1.83;;;21.40;91.90;;;;;;4967023;28;20553;-85
2021/08/26 14:25:35;;;;;;;2.27;1.93;;;21.30;91.90;;;;;;4982458;28;20893;-83
2021/08/26 14:28:03;;;;;;;2.90;1.90;;;21.30;92.10;;;;;;4963674;28;20948;-85
2021/08/26 14:30:33;;;;;;;3.63;2.00;;;21.20;92.40;;;;;;4965885;28;20561;-85
2021/08/26 14:32:59;;;;;;;2.73;1.63;;;21.30;92.50;;;;;;4979286;28;21495;-84
2021/08/26 14:35:26;;;;;;;3.10;1.80;;;21.40;92.00;;;;;;4975427;28;21007;-82
2021/08/26 14:37:53;;;;;;;3.63;1.80;;;21.20;91.90;;;;;;4986344;28;20450;-84
2021/08/26 14:40:20;;;;;;;3.90;2.40;;;21.10;91.80;;;;;;4970156;28;21916;-84
2021/08/26 14:42:47;;;;;;;5.00;2.40;;;21.10;92.10;;;;;;4954318;28;20476;-82
2021/08/26 14:45:13;;;;;;;4.87;2.33;;;21.20;92.30;;;;;;4975525;28;20786;-83
2021/08/26 14:47:40;;;;;;;7.73;5.63;;;21.30;92.40;;;;;;4956332;28;20462;-82
2021/08/26 14:50:07;;;;;;;3.70;2.30;;;21.60;92.10;;;;;;4958738;28;20482;-85
2021/08/26 14:52:34;;;;;;;3.30;2.63;;;21.90;91.40;;;;;;4974667;28;20570;-84
2021/08/26 14:55:01;;;;;;;4.50;2.70;;;21.90;90.90;;;;;;4962328;28;20459;-83
2021/08/26 14:57:28;;;;;;;6.90;2.80;;;21.90;91.10;;;;;;4955555;28;22250;-85
2021/08/26 14:59:55;;;;;;;3.63;2.50;;;21.80;91.00;;;;;;4958603;28;20913;-84
2021/08/26 15:02:22;;;;;;;5.67;3.70;;;21.80;90.70;;;;;;4981499;28;20878;-83
2021/08/26 15:04:49;;;;;;;10.97;9.20;;;21.70;90.80;;;;;;4953923;28;20473;-84
2021/08/26 15:07:15;;;;;;;7.10;4.60;;;21.60;91.10;;;;;;4988902;28;20580;-84
2021/08/26 15:09:43;;;;;;;6.03;5.27;;;21.60;91.40;;;;;;4988931;28;21046;-83
2021/08/26 15:12:11;;;;;;;6.53;3.80;;;21.60;91.10;;;;;;4989741;28;20538;-82
2021/08/26 15:14:41;;;;;;;3.17;2.83;;;21.40;91.10;;;;;;4957498;28;20576;-82
2021/08/26 15:17:17;;;;;;;4.33;2.40;;;21.40;91.60;;;;;;4971923;28;20569;-82
2021/08/26 15:19:47;;;;;;;3.20;2.77;;;21.40;91.70;;;;;;4968542;28;20459;-82
2021/08/26 15:22:33;;;;;;;;;;;;;;;;;;;;;
2021/08/26 15:25:10;;;;;;;6.37;4.13;;;21.50;91.50;;;;;;4991543;28;20515;-82
2021/08/26 15:31:21;;;;;;;3.40;2.40;;;21.60;91.80;;;;;;4940367;28;20994;-80
2021/08/26 15:33:48;;;;;;;3.50;2.30;;;21.90;91.20;;;;;;4990134;28;20468;-80
2021/08/26 15:36:15;;;;;;;3.90;2.20;;;22.10;91.20;;;;;;4987506;28;20496;-80
2021/08/26 15:38:43;;;;;;;3.70;2.50;;;22.30;91.00;;;;;;4991364;28;20466;-81
2021/08/26 15:41:11;;;;;;;3.50;2.17;;;22.30;90.30;;;;;;4986582;28;20492;-81
2021/08/26 15:43:40;;;;;;;3.37;2.10;;;22.20;90.60;;;;;;4970017;28;20508;-80
2021/08/26 15:46:07;;;;;;;5.13;2.10;;;22.10;90.10;;;;;;4964306;28;20859;-79
2021/08/26 15:48:34;;;;;;;5.70;2.57;;;21.90;90.50;;;;;;4987761;28;20523;-81
2021/08/26 15:51:02;;;;;;;7.00;2.50;;;21.70;90.30;;;;;;4971829;28;20497;-84
2021/08/26 15:53:42;;;;;;;7.00;4.60;;;21.60;90.40;;;;;;4970623;28;20454;-82
2021/08/26 15:56:11;;;;;;;5.30;2.40;;;21.50;90.40;;;;;;4969927;28;20485;-82
2021/08/26 16:01:19;;;;;;;3.60;2.57;;;21.50;90.70;;;;;;4970707;28;20451;-86
2021/08/26 16:03:50;;;;;;;5.17;2.10;;;21.40;90.80;;;;;;4950782;28;20485;-84